Time;durP1;ratioP1;P1;durP2;ratioP2;P2;SDS_P1;SDS_P2;PMS_P1;PMS_P2;Temp;Humidity;BMP_temperature;BMP_pressure;BME280_temperature;BME280_humidity;BME280_pressure;Samples;Min_cycle;Max_cycle;Signal;HPM_P1;HPM_P2
2022/01/22 00:02:06;;;;;;;2.67;1.40;;;;;;;-0.57;57.02;100437.34;4459465;32;34202;-64
2022/01/22 00:04:34;;;;;;;1.98;1.00;;;;;;;-0.24;55.95;100432.12;4441657;32;32078;-63
2022/01/22 00:07:04;;;;;;;6.95;1.75;;;;;;;-0.01;55.40;100426.69;4462168;32;34710;-63
2022/01/22 00:09:52;;;;;;;2.40;0.90;;;;;;;-0.11;55.50;100425.69;4449468;32;33768;-62
2022/01/22 00:12:43;;;;;;;5.05;1.33;;;;;;;-0.06;55.24;100421.91;4444875;32;32675;-64
2022/01/22 00:15:13;;;;;;;4.03;1.25;;;;;;;-0.14;55.36;100413.53;4445803;32;32173;-64
2022/01/22 00:17:41;;;;;;;13.75;1.35;;;;;;;-0.24;55.57;100427.03;4447363;32;33594;-63
2022/01/22 00:20:10;;;;;;;5.95;1.98;;;;;;;-0.69;57.34;100414.16;4465664;32;33732;-64
2022/01/22 00:22:38;;;;;;;7.07;1.60;;;;;;;-0.41;56.29;100424.47;4457637;32;34905;-63
2022/01/22 00:25:10;;;;;;;2.40;1.00;;;;;;;-0.24;56.33;100424.47;4449694;32;33762;-62
2022/01/22 00:27:39;;;;;;;2.85;1.10;;;;;;;-0.58;56.54;100421.94;4462170;32;33839;-62
2022/01/22 00:30:09;;;;;;;4.30;0.93;;;;;;;-0.25;56.08;100425.25;4442848;32;32328;-62
2022/01/22 00:32:37;;;;;;;6.22;1.55;;;;;;;-0.21;55.83;100422.25;4458475;32;33207;-64
2022/01/22 00:35:05;;;;;;;3.97;1.23;;;;;;;-0.41;56.39;100421.94;4457392;32;34381;-63
2022/01/22 00:37:34;;;;;;;6.28;1.58;;;;;;;-0.80;57.41;100419.81;4461680;32;33714;-63
2022/01/22 00:40:03;;;;;;;6.10;1.27;;;;;;;-0.40;56.37;100418.66;4465397;32;34435;-63
2022/01/22 00:42:33;;;;;;;5.35;1.33;;;;;;;-0.05;55.56;100423.72;4448474;32;34968;-63
2022/01/22 00:45:01;;;;;;;3.58;1.30;;;;;;;0.03;55.44;100415.16;4464936;32;33494;-64
2022/01/22 00:47:29;;;;;;;4.20;1.40;;;;;;;-0.74;57.12;100412.78;4459540;32;34088;-64
2022/01/22 00:49:57;;;;;;;3.42;1.40;;;;;;;-0.58;56.52;100416.84;4457260;32;33963;-63
2022/01/22 00:52:24;;;;;;;4.80;1.50;;;;;;;-0.57;56.91;100398.28;4466919;32;34372;-62
2022/01/22 00:54:51;;;;;;;5.25;1.77;;;;;;;-0.89;57.69;100408.72;4457786;32;33722;-63
2022/01/22 00:57:19;;;;;;;4.03;1.33;;;;;;;-0.98;58.00;100396.00;4461369;32;34129;-63
2022/01/22 00:59:47;;;;;;;4.22;1.62;;;;;;;-0.30;56.33;100406.06;4464400;32;34474;-63
2022/01/22 01:02:14;;;;;;;3.97;1.75;;;;;;;-0.77;57.58;100399.78;4467044;32;34184;-63
2022/01/22 01:04:42;;;;;;;4.28;1.60;;;;;;;-0.55;56.99;100392.59;4456986;32;34313;-62
2022/01/22 01:07:10;;;;;;;6.10;1.27;;;;;;;-0.15;56.48;100391.38;4460627;32;33750;-63
2022/01/22 01:09:40;;;;;;;2.83;1.30;;;;;;;-0.27;56.19;100386.00;4445722;32;34559;-63
2022/01/22 01:12:11;;;;;;;4.82;1.60;;;;;;;0.02;55.94;100371.72;4457939;32;34019;-63
2022/01/22 01:14:46;;;;;;;3.33;1.50;;;;;;;-0.10;56.36;100366.34;4464487;32;33565;-62
2022/01/22 01:17:57;;;;;;;5.93;1.58;;;;;;;-0.37;56.82;100365.47;4442426;32;32336;-62
2022/01/22 01:34:21;;;;;;;4.90;1.20;;;;;;;-0.17;56.96;100297.75;4463570;32;34196;-63
2022/01/22 01:36:50;;;;;;;5.80;1.50;;;;;;;-0.21;56.70;100300.03;4462204;32;34637;-63
2022/01/22 01:39:27;;;;;;;5.65;1.37;;;;;;;-0.49;57.66;100305.78;4442622;32;33191;-63
2022/01/22 01:42:03;;;;;;;3.28;1.33;;;;;;;-0.40;57.54;100283.75;4464821;32;34033;-64
2022/01/22 01:44:31;;;;;;;3.58;1.77;;;;;;;-0.62;58.47;100294.44;4459422;32;34313;-63
2022/01/22 01:47:01;;;;;;;4.32;1.35;;;;;;;-0.21;57.65;100284.75;4462156;32;34373;-63
2022/01/22 01:49:30;;;;;;;4.18;1.20;;;;;;;-0.44;58.52;100268.94;4444764;32;33673;-62
2022/01/22 01:52:01;;;;;;;4.68;1.52;;;;;;;-0.07;57.45;100260.59;4468757;32;33966;-62
2022/01/22 01:54:46;;;;;;;4.12;1.30;;;;;;;-0.18;58.02;100250.16;4456485;32;34117;-62
2022/01/22 01:57:30;;;;;;;3.53;1.23;;;;;;;-0.11;57.78;100249.97;4461376;32;33439;-63
2022/01/22 02:00:00;;;;;;;3.85;1.00;;;;;;;0.02;57.46;100242.75;4456887;32;33943;-64
2022/01/22 02:02:32;;;;;;;2.45;1.10;;;;;;;0.26;56.60;100238.13;4478629;26;33978;-85
2022/01/22 02:05:00;;;;;;;2.90;1.00;;;;;;;-0.39;58.72;100232.09;4461130;32;34557;-86
2022/01/22 02:07:27;;;;;;;5.62;1.10;;;;;;;-0.58;59.21;100213.28;4486700;26;32549;-63
2022/01/22 02:09:55;;;;;;;3.50;1.33;;;;;;;-0.49;58.62;100209.97;4462835;32;34814;-63
2022/01/22 02:12:48;;;;;;;3.75;1.10;;;;;;;-0.56;58.56;100197.44;4468237;32;34005;-63
2022/01/22 02:26:08;;;;;;;2.37;0.73;;;;;;;-0.42;56.77;100180.91;4468831;32;34725;-63
2022/01/22 02:28:36;;;;;;;3.37;1.00;;;;;;;-0.13;56.02;100191.25;4462591;32;33311;-64
2022/01/22 02:31:34;;;;;;;4.82;1.17;;;;;;;-0.25;56.27;100191.03;4461445;32;33894;-64
2022/01/22 02:36:29;;;;;;;2.40;0.90;;;;;;;-0.13;55.53;100185.28;4457532;32;35004;-63
2022/01/22 02:41:26;;;;;;;2.22;0.80;;;;;;;0.11;55.35;100172.25;4463905;32;34007;-64
2022/01/22 02:43:54;;;;;;;2.15;0.70;;;;;;;0.08;55.35;100174.53;4455122;32;33995;-62
2022/01/22 02:46:25;;;;;;;2.03;0.55;;;;;;;0.02;55.71;100173.06;4467319;32;34805;-64
2022/01/22 02:48:54;;;;;;;4.22;0.88;;;;;;;-0.39;56.51;100171.00;4457978;32;33281;-63
2022/01/22 02:51:23;;;;;;;3.72;0.90;;;;;;;-0.43;57.05;100169.81;4468135;32;34529;-62
2022/01/22 02:53:54;;;;;;;6.07;1.42;;;;;;;-0.23;56.68;100181.88;4465703;32;33794;-64
2022/01/22 02:56:23;;;;;;;2.72;0.93;;;;;;;-0.56;58.02;100181.25;4456727;32;34984;-64
2022/01/22 02:58:52;;;;;;;2.53;0.80;;;;;;;-0.50;57.74;100181.81;4465429;32;33617;-63
2022/01/22 03:01:23;;;;;;;2.45;0.93;;;;;;;-0.36;57.39;100191.66;4467435;32;33865;-63
2022/01/22 03:03:50;;;;;;;2.60;1.10;;;;;;;-0.49;57.80;100181.09;4467599;32;34118;-63
2022/01/22 03:06:18;;;;;;;3.10;1.30;;;;;;;-0.39;57.81;100176.09;4467405;32;34271;-63
2022/01/22 03:08:47;;;;;;;4.60;1.17;;;;;;;-0.66;58.59;100169.31;4455644;32;33792;-64
2022/01/22 03:11:25;;;;;;;4.68;1.85;;;;;;;-0.40;57.95;100156.50;4457783;32;34675;-64
2022/01/22 03:22:17;;;;;;;6.95;1.40;;;;;;;-0.34;58.19;100146.88;4460549;32;33950;-64
2022/01/22 03:27:33;;;;;;;5.35;1.50;;;;;;;-0.22;58.19;100135.28;4463146;32;33911;-63
2022/01/22 03:30:04;;;;;;;3.92;1.20;;;;;;;-0.09;57.84;100147.50;4469158;32;33706;-63
2022/01/22 03:32:38;;;;;;;3.70;1.37;;;;;;;-0.14;58.06;100147.84;4458178;32;34612;-64
2022/01/22 03:35:12;;;;;;;2.87;1.35;;;;;;;-0.22;58.51;100145.47;4462414;32;33992;-63
2022/01/22 03:37:41;;;;;;;8.07;1.60;;;;;;;-0.26;58.58;100140.84;4467553;32;34168;-63
2022/01/22 03:40:12;;;;;;;3.85;1.42;;;;;;;-0.13;58.52;100139.44;4459283;32;34431;-64
2022/01/22 03:42:41;;;;;;;5.93;1.80;;;;;;;-0.34;59.37;100144.34;4466316;32;33910;-64
2022/01/22 03:45:10;;;;;;;5.25;1.40;;;;;;;-0.38;59.60;100147.34;4464375;32;33849;-64
2022/01/22 03:47:39;;;;;;;4.40;1.40;;;;;;;-0.17;59.31;100134.81;4458603;32;34436;-63
2022/01/22 03:50:09;;;;;;;3.87;1.23;;;;;;;-0.15;59.24;100125.69;4459558;32;34247;-63
2022/01/22 03:52:37;;;;;;;5.80;1.67;;;;;;;-0.35;59.83;100118.75;4465617;32;33658;-63
2022/01/22 03:55:07;;;;;;;4.35;1.40;;;;;;;-0.06;59.66;100109.59;4458135;32;33884;-63
2022/01/22 03:57:39;;;;;;;4.37;1.50;;;;;;;-0.26;59.81;100112.84;4457704;32;32403;-63
2022/01/22 04:00:08;;;;;;;10.35;1.90;;;;;;;-0.16;60.87;100111.16;4459223;32;32181;-64
2022/01/22 04:05:19;;;;;;;4.37;1.57;;;;;;;-0.42;68.67;100109.66;4454979;32;33987;-63
2022/01/22 04:10:43;;;;;;;4.60;1.90;;;;;;;-0.74;74.16;100120.25;4456407;32;33351;-63
2022/01/22 04:13:14;;;;;;;5.40;1.92;;;;;;;-0.53;74.26;100117.94;4459561;32;33592;-62
2022/01/22 04:15:41;;;;;;;5.62;2.47;;;;;;;-0.22;73.97;100112.38;4464257;32;33605;-62
2022/01/22 04:28:56;;;;;;;10.18;2.90;;;;;;;-0.81;79.92;100112.81;4457909;32;34809;-63
2022/01/22 04:31:24;;;;;;;6.05;2.83;;;;;;;-0.82;81.68;100106.81;4464477;32;33800;-63
2022/01/22 04:33:51;;;;;;;6.72;3.08;;;;;;;-1.11;82.96;100106.59;4466485;32;34419;-63
2022/01/22 04:36:19;;;;;;;7.18;3.05;;;;;;;-0.42;81.04;100105.44;4463973;32;33935;-63
2022/01/22 04:38:47;;;;;;;7.97;3.65;;;;;;;-0.84;83.51;100102.34;4468241;32;33942;-64
2022/01/22 04:41:15;;;;;;;8.48;2.80;;;;;;;-0.57;82.89;100090.41;4458345;32;33444;-63
2022/01/22 04:43:44;;;;;;;8.48;3.60;;;;;;;-0.33;82.49;100097.78;4461892;32;33916;-63
2022/01/22 04:48:52;;;;;;;9.95;3.90;;;;;;;-0.68;84.84;100085.19;4460958;32;33592;-63
2022/01/22 04:56:53;;;;;;;7.12;3.10;;;;;;;0.95;78.47;100076.94;4462323;32;34901;-63
2022/01/22 04:59:21;;;;;;;7.43;3.28;;;;;;;0.77;79.24;100073.69;4469141;32;34516;-63
2022/01/22 05:01:48;;;;;;;8.43;3.72;;;;;;;0.81;79.27;100069.72;4459955;32;34313;-64
2022/01/22 05:04:16;;;;;;;10.50;3.90;;;;;;;-0.28;82.85;100088.91;4468441;32;34040;-64
2022/01/22 05:06:44;;;;;;;8.75;4.00;;;;;;;0.48;81.73;100083.84;4467352;32;34412;-63
2022/01/22 05:09:13;;;;;;;9.73;3.83;;;;;;;-0.27;84.40;100085.63;4462730;32;34086;-64
2022/01/22 05:11:42;;;;;;;10.45;4.10;;;;;;;0.30;83.40;100077.13;4459998;32;34442;-63
2022/01/22 05:14:10;;;;;;;10.32;4.07;;;;;;;0.12;81.84;100092.53;4459603;32;34616;-64
2022/01/22 05:16:38;;;;;;;9.10;4.18;;;;;;;-0.03;83.37;100080.97;4458941;32;32800;-64
2022/01/22 05:19:21;;;;;;;10.43;4.25;;;;;;;-0.22;84.71;100086.91;4459312;32;33944;-64
2022/01/22 05:21:51;;;;;;;11.45;4.00;;;;;;;-0.16;84.96;100088.22;4460075;32;33546;-64
2022/01/22 05:24:24;;;;;;;9.02;4.30;;;;;;;0.33;84.08;100085.03;4455742;32;33133;-63
2022/01/22 05:37:08;;;;;;;10.93;4.55;;;;;;;0.55;82.08;100086.19;4465839;32;33954;-63
2022/01/22 05:39:36;;;;;;;10.15;4.97;;;;;;;0.36;83.67;100082.75;4464381;32;33866;-64
2022/01/22 05:42:05;;;;;;;11.57;4.85;;;;;;;0.45;82.04;100073.38;4460774;32;34440;-63
2022/01/22 05:44:35;;;;;;;11.93;5.53;;;;;;;-0.23;85.65;100081.69;4466716;32;33268;-64
2022/01/22 05:47:05;;;;;;;12.75;5.55;;;;;;;-0.42;86.70;100079.09;4462815;32;33796;-63
2022/01/22 05:49:38;;;;;;;13.88;6.50;;;;;;;-0.36;87.97;100079.66;4459089;32;34359;-64
2022/01/22 05:52:08;;;;;;;14.15;6.20;;;;;;;-0.31;87.80;100075.00;4460582;32;34513;-63
2022/01/22 05:55:37;;;;;;;14.30;7.07;;;;;;;0.38;84.43;100064.28;4467617;32;33914;-63
2022/01/22 06:00:11;;;;;;;17.90;8.25;;;;;;;0.65;80.98;100071.69;4463676;32;34869;-64
2022/01/22 06:02:46;;;;;;;20.23;8.50;;;;;;;0.82;81.99;100081.72;4460525;32;34252;-64
2022/01/22 06:05:15;;;;;;;16.75;7.05;;;;;;;0.77;80.67;100075.31;4463735;32;34593;-64
2022/01/22 06:07:42;;;;;;;11.55;4.93;;;;;;;0.85;80.90;100087.09;4466499;32;33925;-63
2022/01/22 06:10:17;;;;;;;9.00;4.57;;;;;;;1.73;78.25;100087.81;4460437;32;34928;-63
2022/01/22 06:15:13;;;;;;;8.68;3.75;;;;;;;2.08;75.86;100082.19;4463876;32;33961;-63
2022/01/22 06:17:41;;;;;;;7.45;2.60;;;;;;;1.76;77.11;100093.19;4467019;32;33666;-64
2022/01/22 06:20:13;;;;;;;7.03;2.47;;;;;;;1.70;76.58;100082.47;4460538;32;34966;-63
2022/01/22 06:22:42;;;;;;;3.95;1.70;;;;;;;1.65;78.03;100088.84;4466633;32;33507;-63
2022/01/22 06:25:09;;;;;;;4.43;1.67;;;;;;;1.99;75.85;100086.56;4460726;32;33788;-64
2022/01/22 06:27:37;;;;;;;3.70;1.45;;;;;;;1.53;78.05;100098.03;4461819;32;33952;-63
2022/01/22 06:30:05;;;;;;;2.95;1.30;;;;;;;1.15;78.53;100093.94;4458384;32;34100;-63
2022/01/22 06:32:34;;;;;;;2.28;1.08;;;;;;;0.64;80.97;100096.31;4469349;32;33691;-64
2022/01/22 06:35:01;;;;;;;4.57;1.25;;;;;;;1.27;79.64;100098.31;4458099;32;33770;-64
2022/01/22 06:37:29;;;;;;;3.53;1.27;;;;;;;1.90;76.12;100096.88;4464176;32;33857;-63
2022/01/22 06:42:52;;;;;;;4.07;1.20;;;;;;;1.40;77.79;100113.03;4463070;32;33341;-62
2022/01/22 06:45:20;;;;;;;4.97;1.60;;;;;;;0.96;78.86;100111.84;4469081;32;33798;-63
2022/01/22 06:47:47;;;;;;;3.30;1.60;;;;;;;0.73;80.53;100121.69;4460280;32;33915;-63
2022/01/22 06:50:15;;;;;;;4.50;1.70;;;;;;;0.58;80.43;100117.03;4466394;32;34236;-63
2022/01/22 06:52:45;;;;;;;4.03;1.75;;;;;;;0.57;81.52;100110.16;4466230;32;33443;-62
2022/01/22 06:55:16;;;;;;;4.60;1.90;;;;;;;0.67;80.09;100106.75;4459803;32;33897;-62
2022/01/22 06:57:44;;;;;;;6.70;2.17;;;;;;;0.44;81.17;100107.25;4467299;32;33929;-63
2022/01/22 07:00:12;;;;;;;8.05;2.78;;;;;;;0.68;79.52;100112.78;4467071;32;34988;-62
2022/01/22 07:02:42;;;;;;;5.18;2.03;;;;;;;0.54;79.95;100103.88;4461344;32;31742;-62
2022/01/22 07:05:10;;;;;;;5.60;2.15;;;;;;;0.80;79.13;100108.75;4463480;32;33411;-63
2022/01/22 07:07:39;;;;;;;10.90;2.53;;;;;;;1.13;78.24;100109.91;4459321;32;32293;-63
2022/01/22 07:10:07;;;;;;;4.22;1.87;;;;;;;1.40;76.49;100111.37;4457821;32;34261;-62
2022/01/22 07:12:34;;;;;;;8.98;2.53;;;;;;;1.33;76.17;100125.28;4466144;32;34077;-62
2022/01/22 07:15:03;;;;;;;5.90;2.50;;;;;;;1.04;78.06;100129.50;4461530;32;33816;-63
2022/01/22 07:17:35;;;;;;;7.37;2.62;;;;;;;1.17;76.88;100132.37;4462015;32;34767;-62
2022/01/22 07:20:05;;;;;;;5.05;2.50;;;;;;;1.82;74.79;100150.66;4468308;32;34864;-63
2022/01/22 07:22:38;;;;;;;6.00;3.15;;;;;;;1.90;73.85;100142.88;4462833;32;33700;-63
2022/01/22 07:25:07;;;;;;;11.12;3.45;;;;;;;1.70;74.10;100159.06;4460003;32;33450;-63
2022/01/22 07:27:34;;;;;;;6.28;3.08;;;;;;;1.68;74.55;100158.06;4460189;32;33773;-62
2022/01/22 07:30:02;;;;;;;12.35;3.47;;;;;;;1.88;74.46;100163.97;4467663;32;34174;-63
2022/01/22 07:32:36;;;;;;;37.63;15.52;;;;;;;1.73;73.82;100166.97;4458290;32;32560;-63
2022/01/22 07:35:04;;;;;;;10.60;5.85;;;;;;;1.12;77.00;100174.44;4462729;32;33719;-64
2022/01/22 07:37:32;;;;;;;11.15;6.72;;;;;;;1.99;73.93;100163.22;4462327;32;33957;-62
2022/01/22 07:40:05;;;;;;;13.35;6.72;;;;;;;0.94;77.07;100169.50;4459305;32;34123;-64
2022/01/22 07:42:37;;;;;;;15.90;5.45;;;;;;;0.97;77.08;100159.59;4461331;32;33780;-65
2022/01/22 07:45:09;;;;;;;10.65;4.43;;;;;;;1.08;77.68;100157.06;4458585;32;33743;-65
2022/01/22 07:47:39;;;;;;;9.85;4.25;;;;;;;0.98;76.84;100156.28;4458818;32;34662;-64
2022/01/22 07:50:11;;;;;;;37.88;17.02;;;;;;;0.88;77.89;100158.75;4459019;32;33821;-64
2022/01/22 07:52:39;;;;;;;7.37;3.80;;;;;;;0.84;78.50;100161.81;4458665;32;34603;-65
2022/01/22 07:55:07;;;;;;;8.75;3.62;;;;;;;0.61;78.70;100153.75;4463654;32;34476;-64
2022/01/22 07:57:35;;;;;;;7.03;3.55;;;;;;;1.01;77.37;100144.56;4457911;32;34761;-63
2022/01/22 08:00:06;;;;;;;8.10;3.08;;;;;;;1.10;77.15;100151.34;4468628;32;33877;-65
2022/01/22 08:02:42;;;;;;;5.97;3.05;;;;;;;0.86;77.91;100144.97;4465836;32;34366;-65
2022/01/22 08:05:15;;;;;;;11.80;4.00;;;;;;;1.01;77.38;100144.56;4458636;32;33584;-62
2022/01/22 08:07:48;;;;;;;10.25;3.53;;;;;;;1.17;77.25;100148.56;4465961;32;33636;-64
2022/01/22 08:10:19;;;;;;;8.25;3.03;;;;;;;1.87;74.53;100142.59;4464768;32;32404;-64
2022/01/22 08:12:49;;;;;;;7.87;2.50;;;;;;;1.94;73.21;100138.91;4466113;32;33952;-64
2022/01/22 08:15:18;;;;;;;6.57;2.22;;;;;;;2.13;71.56;100142.25;4459347;32;32369;-61
2022/01/22 08:17:45;;;;;;;5.10;2.08;;;;;;;2.03;73.01;100134.59;4458976;32;34769;-63
2022/01/22 08:20:15;;;;;;;3.30;1.42;;;;;;;2.18;72.13;100152.84;4459250;32;34596;-62
2022/01/22 08:22:45;;;;;;;4.55;2.30;;;;;;;1.85;72.22;100150.91;4466529;32;33417;-62
2022/01/22 08:25:14;;;;;;;7.28;2.80;;;;;;;1.73;73.77;100155.87;4465497;32;31926;-62
2022/01/22 08:30:35;;;;;;;3.67;1.65;;;;;;;2.64;69.76;100153.19;4447188;32;34680;-62
2022/01/22 08:35:53;;;;;;;4.60;2.00;;;;;;;2.34;70.71;100167.81;4465795;32;33912;-62
2022/01/22 08:38:31;;;;;;;9.18;2.50;;;;;;;2.37;70.31;100183.37;4468393;32;33848;-63
2022/01/22 08:40:58;;;;;;;6.47;1.92;;;;;;;2.64;68.99;100178.78;4459456;32;34089;-61
2022/01/22 08:43:27;;;;;;;5.93;2.92;;;;;;;2.94;67.10;100195.72;4463834;32;33659;-62
2022/01/22 08:45:56;;;;;;;5.97;3.17;;;;;;;2.34;70.15;100203.59;4457448;32;33789;-62
2022/01/22 08:48:23;;;;;;;5.85;3.10;;;;;;;2.44;69.99;100213.81;4465710;32;32549;-63
2022/01/22 08:50:51;;;;;;;11.93;3.78;;;;;;;2.45;70.32;100210.47;4461781;32;32792;-62
2022/01/22 08:53:39;;;;;;;7.60;3.70;;;;;;;2.52;69.84;100205.12;4467126;32;34169;-62
2022/01/22 08:56:09;;;;;;;8.10;3.92;;;;;;;2.48;69.67;100208.19;4467662;32;33914;-62
2022/01/22 08:58:37;;;;;;;17.98;9.25;;;;;;;1.86;72.41;100201.25;4468825;32;35663;-61
2022/01/22 09:01:05;;;;;;;12.18;6.87;;;;;;;0.82;76.06;100201.56;4463932;32;34152;-62
2022/01/22 09:03:35;;;;;;;28.45;15.10;;;;;;;1.70;73.29;100205.03;4456924;32;33619;-64
2022/01/22 09:06:07;;;;;;;38.67;15.30;;;;;;;1.46;74.01;100219.13;4464314;32;33811;-61
2022/01/22 09:08:37;;;;;;;12.60;6.60;;;;;;;2.06;72.19;100221.72;4465572;32;32455;-62
2022/01/22 09:11:06;;;;;;;15.68;5.53;;;;;;;1.54;73.57;100214.69;4457641;32;34739;-61
2022/01/22 09:13:37;;;;;;;8.45;4.75;;;;;;;1.67;73.07;100209.87;4457816;32;32531;-62
2022/01/22 09:16:05;;;;;;;11.40;5.28;;;;;;;1.89;72.59;100221.94;4457316;32;34611;-63
2022/01/22 09:18:33;;;;;;;104.55;32.55;;;;;;;1.23;73.65;100234.97;4450979;32;34920;-62
2022/01/22 09:21:04;;;;;;;80.00;26.58;;;;;;;1.87;71.66;100244.78;4460622;32;34212;-62
2022/01/22 09:23:33;;;;;;;20.05;7.97;;;;;;;1.95;71.17;100248.00;4461214;32;33693;-62
2022/01/22 09:26:01;;;;;;;12.93;4.57;;;;;;;1.90;70.13;100254.37;4465683;32;34616;-63
2022/01/22 09:28:31;;;;;;;11.12;4.00;;;;;;;1.72;72.28;100249.47;4454292;32;33866;-63
2022/01/22 09:30:59;;;;;;;7.60;2.87;;;;;;;1.66;71.30;100248.97;4452992;32;34283;-63
2022/01/22 09:33:27;;;;;;;6.70;3.10;;;;;;;2.10;70.16;100254.41;4454475;32;33706;-63
2022/01/22 09:35:55;;;;;;;7.20;3.37;;;;;;;1.57;71.65;100260.91;4455593;32;33839;-63
2022/01/22 09:38:26;;;;;;;9.60;4.05;;;;;;;1.70;70.62;100261.22;4455317;32;33979;-63
2022/01/22 09:40:56;;;;;;;9.30;3.22;;;;;;;1.21;72.72;100277.31;4453317;32;34936;-62
2022/01/22 09:43:24;;;;;;;7.87;3.62;;;;;;;1.86;70.18;100267.66;4457758;32;33620;-63
2022/01/22 09:45:52;;;;;;;15.45;7.10;;;;;;;1.32;72.51;100276.62;4456439;32;33825;-63
2022/01/22 09:48:19;;;;;;;8.38;4.05;;;;;;;1.69;71.43;100264.53;4457390;32;33962;-64
2022/01/22 09:50:47;;;;;;;10.07;4.80;;;;;;;1.11;72.70;100279.81;4463984;32;34694;-62
2022/01/22 09:53:15;;;;;;;8.35;3.80;;;;;;;1.58;70.79;100272.91;4459959;32;34429;-64
2022/01/22 09:55:43;;;;;;;10.02;4.32;;;;;;;0.62;74.41;100270.25;4457235;32;33822;-62
2022/01/22 09:58:12;;;;;;;9.13;4.30;;;;;;;1.00;74.56;100275.41;4460845;32;32843;-61
2022/01/22 10:00:45;;;;;;;6.20;3.33;;;;;;;0.84;74.28;100279.12;4457103;32;34269;-62
2022/01/22 10:03:19;;;;;;;6.65;3.72;;;;;;;0.90;73.84;100272.00;4454601;32;32069;-62
2022/01/22 10:05:47;;;;;;;10.35;5.25;;;;;;;1.15;73.05;100274.22;4462624;32;34729;-62
2022/01/22 10:08:31;;;;;;;10.70;5.05;;;;;;;1.24;72.37;100281.81;4460695;32;33885;-62
2022/01/22 10:11:01;;;;;;;12.60;6.95;;;;;;;1.03;72.93;100280.78;4459855;32;34738;-61
2022/01/22 10:13:36;;;;;;;13.80;6.07;;;;;;;1.00;72.90;100275.41;4454012;32;33514;-62
2022/01/22 10:16:19;;;;;;;9.80;5.10;;;;;;;0.89;73.62;100276.97;4457355;32;32635;-62
2022/01/22 10:19:07;;;;;;;8.75;4.15;;;;;;;1.49;71.85;100279.78;4453303;32;34712;-60
2022/01/22 10:21:35;;;;;;;9.07;4.40;;;;;;;1.51;71.10;100283.38;4458204;32;34522;-62
2022/01/22 10:24:41;;;;;;;8.48;4.40;;;;;;;0.84;72.45;100293.53;4458238;32;34275;-62
2022/01/22 10:27:34;;;;;;;9.82;5.30;;;;;;;0.96;72.15;100300.63;4416557;32;34000;-61
2022/01/22 10:30:13;;;;;;;11.45;5.28;;;;;;;1.10;71.93;100298.41;4462342;32;33733;-62
2022/01/22 10:35:23;;;;;;;10.10;4.85;;;;;;;1.27;70.87;100305.94;4462267;32;32765;-61
2022/01/22 10:38:13;;;;;;;8.93;4.40;;;;;;;1.18;70.84;100303.47;4463379;32;33799;-59
2022/01/22 10:40:42;;;;;;;8.75;4.10;;;;;;;1.54;68.94;100291.28;4455176;32;34667;-62
2022/01/22 10:43:16;;;;;;;8.90;3.70;;;;;;;1.68;68.50;100295.97;4464363;32;33882;-62
2022/01/22 10:46:07;;;;;;;8.43;3.62;;;;;;;1.79;67.80;100296.88;4461067;32;33547;-61
2022/01/22 10:49:04;;;;;;;7.35;3.22;;;;;;;1.63;67.59;100304.84;4462701;32;33343;-61
2022/01/22 10:51:45;;;;;;;5.60;2.90;;;;;;;1.73;67.21;100297.22;4463605;32;34722;-62
2022/01/22 10:54:13;;;;;;;8.13;4.22;;;;;;;1.94;66.27;100297.31;4459358;32;34582;-62
2022/01/22 10:56:41;;;;;;;9.00;3.40;;;;;;;1.96;65.79;100306.00;4467952;32;34357;-61
2022/01/22 10:59:11;;;;;;;5.72;2.25;;;;;;;2.50;63.41;100308.94;4452564;32;33420;-63
2022/01/22 11:01:55;;;;;;;6.37;3.03;;;;;;;2.41;63.17;100313.25;4462313;32;34691;-62
2022/01/22 11:04:28;;;;;;;5.62;2.72;;;;;;;2.29;65.17;100318.22;4458066;32;34056;-63
2022/01/22 11:06:57;;;;;;;6.22;3.35;;;;;;;2.67;62.40;100335.06;4468904;32;34393;-62
2022/01/22 11:09:45;;;;;;;6.57;2.65;;;;;;;2.78;62.64;100323.16;4465761;32;33636;-64
2022/01/22 11:12:13;;;;;;;5.35;2.28;;;;;;;2.89;59.20;100330.06;4461932;32;33616;-61
2022/01/22 11:14:41;;;;;;;6.00;2.80;;;;;;;2.73;60.65;100330.47;4456226;32;34965;-62
2022/01/22 11:17:09;;;;;;;7.00;3.00;;;;;;;2.43;63.73;100332.19;4460103;32;33684;-62
2022/01/22 11:19:39;;;;;;;5.30;2.08;;;;;;;2.72;60.51;100332.13;4460652;32;33598;-62
2022/01/22 11:22:11;;;;;;;3.72;1.92;;;;;;;3.43;56.95;100337.06;4467483;32;34530;-61
2022/01/22 11:24:44;;;;;;;6.75;2.42;;;;;;;3.46;56.22;100347.56;4468201;32;34186;-63
2022/01/22 11:27:15;;;;;;;3.30;1.52;;;;;;;3.62;54.93;100342.00;4465149;32;33438;-62
2022/01/22 11:29:48;;;;;;;5.15;2.05;;;;;;;3.15;53.99;100348.50;4452892;32;33629;-62
2022/01/22 11:32:19;;;;;;;5.60;2.10;;;;;;;3.40;54.82;100352.16;4461292;32;33663;-62
2022/01/22 11:34:49;;;;;;;3.65;1.70;;;;;;;3.34;55.10;100350.91;4453092;32;34086;-63
2022/01/22 11:37:37;;;;;;;5.57;1.27;;;;;;;3.25;53.37;100352.72;4439983;32;34318;-62
2022/01/22 11:40:14;;;;;;;2.62;1.33;;;;;;;3.14;50.62;100343.25;4458807;32;34505;-61
2022/01/22 11:43:34;;;;;;;3.50;1.23;;;;;;;3.15;49.40;100348.50;4461214;32;34791;-62
2022/01/22 11:45:51;;;;;;;2.10;0.85;;;;;;;3.17;49.50;100357.94;4463583;32;33520;-62
2022/01/22 11:48:28;;;;;;;3.72;1.75;;;;;;;3.10;47.26;100343.75;4461938;32;33761;-61
2022/01/22 11:51:21;;;;;;;4.35;1.23;;;;;;;3.44;51.40;100355.13;4454541;32;33836;-61
2022/01/22 11:54:01;;;;;;;4.55;1.83;;;;;;;3.41;50.96;100369.34;4458673;32;33610;-60
2022/01/22 11:56:52;;;;;;;3.85;1.70;;;;;;;3.32;52.11;100360.13;4456112;32;33643;-62
2022/01/22 11:59:25;;;;;;;2.75;1.50;;;;;;;2.79;53.21;100346.31;4456947;32;34116;-62
2022/01/22 12:01:56;;;;;;;3.45;1.80;;;;;;;3.22;51.07;100362.69;4453960;32;33696;-64
2022/01/22 12:04:28;;;;;;;4.43;1.60;;;;;;;3.61;50.67;100368.38;4456548;32;33858;-64
2022/01/22 12:07:01;;;;;;;4.12;1.70;;;;;;;3.24;50.38;100361.12;4464092;32;34050;-63
2022/01/22 12:09:32;;;;;;;6.43;2.30;;;;;;;3.83;49.99;100373.59;4457387;32;33551;-63
2022/01/22 12:15:42;;;;;;;3.25;1.50;;;;;;;3.88;47.56;100364.59;4460151;32;33960;-63
2022/01/22 12:18:13;;;;;;;3.28;1.55;;;;;;;4.00;46.69;100368.16;4451950;32;34045;-63
2022/01/22 12:23:40;;;;;;;3.55;1.58;;;;;;;3.54;46.59;100357.66;4460326;32;33580;-64
2022/01/22 12:26:08;;;;;;;4.53;1.92;;;;;;;3.40;48.06;100367.53;4461611;32;33711;-62
2022/01/22 12:28:45;;;;;;;3.78;1.90;;;;;;;3.44;48.65;100372.13;4456676;32;35273;-62
2022/01/22 12:31:19;;;;;;;3.80;1.50;;;;;;;3.56;49.10;100356.88;4458092;32;34337;-63
2022/01/22 12:33:53;;;;;;;4.60;1.42;;;;;;;3.29;49.14;100370.09;4461972;32;34568;-62
2022/01/22 12:36:28;;;;;;;4.45;1.45;;;;;;;3.32;49.02;100360.13;4465337;32;33796;-63
2022/01/22 12:39:03;;;;;;;2.60;1.20;;;;;;;3.25;49.81;100359.50;4469638;32;34245;-64
2022/01/22 12:44:10;;;;;;;4.70;1.90;;;;;;;2.70;50.98;100350.66;4465645;32;33745;-62
2022/01/22 12:46:56;;;;;;;4.57;2.00;;;;;;;2.75;50.65;100355.37;4465613;32;34946;-62
2022/01/22 12:49:25;;;;;;;4.95;1.90;;;;;;;2.75;51.28;100355.37;4464583;32;34220;-62
2022/01/22 12:51:55;;;;;;;4.00;1.87;;;;;;;2.55;50.89;100358.81;4463101;32;33477;-62
2022/01/22 12:54:56;;;;;;;4.18;1.42;;;;;;;2.69;50.92;100366.78;4455025;32;34305;-62
2022/01/22 12:57:25;;;;;;;4.12;1.55;;;;;;;2.68;49.24;100380.31;4461769;32;34386;-65
2022/01/22 13:00:07;;;;;;;4.53;1.50;;;;;;;2.61;48.90;100383.09;4457826;32;33987;-62
2022/01/22 13:02:37;;;;;;;4.05;2.15;;;;;;;2.71;49.12;100385.72;4469300;32;34347;-63
2022/01/22 13:05:06;;;;;;;3.03;1.37;;;;;;;2.88;47.76;100390.59;4450823;32;33693;-63
2022/01/22 13:07:38;;;;;;;3.62;1.58;;;;;;;2.88;47.14;100389.69;4459981;32;34272;-62
2022/01/22 13:10:09;;;;;;;3.28;1.40;;;;;;;2.61;47.36;100398.47;4463955;32;32264;-61
2022/01/22 13:12:41;;;;;;;1.83;0.90;;;;;;;2.84;46.94;100393.66;4470109;32;34606;-62
2022/01/22 13:15:10;;;;;;;4.85;1.95;;;;;;;2.89;46.02;100397.47;4464838;32;32953;-63
2022/01/22 13:17:39;;;;;;;5.37;1.55;;;;;;;2.85;47.69;100402.22;4460525;32;33594;-63
2022/01/22 13:20:08;;;;;;;1.90;0.95;;;;;;;3.21;46.72;100401.88;4468098;32;34557;-62
2022/01/22 13:22:37;;;;;;;2.40;1.02;;;;;;;3.22;46.56;100408.75;4465817;32;33643;-64
2022/01/22 13:25:11;;;;;;;2.50;1.12;;;;;;;3.08;45.46;100404.16;4466862;32;34775;-62
2022/01/22 13:27:40;;;;;;;2.10;0.82;;;;;;;3.03;46.17;100410.56;4460516;32;34669;-62
2022/01/22 13:30:10;;;;;;;3.58;1.45;;;;;;;2.88;45.79;100407.63;4464224;32;33893;-64
2022/01/22 13:32:48;;;;;;;5.35;2.28;;;;;;;2.94;45.68;100424.38;4469614;32;34357;-63